Stations météo

réclame
Mon MeteoGroup
Grottaglie, Italie (16324): Température de l'air & dewpoint: 12.10.2017 05:00:00 - 18.10.2017 05:00:00 (CEST)Grottaglie, Italie (16324): Vitesse du vent: 12.10.2017 05:00:00 - 18.10.2017 05:00:00 (CEST)Grottaglie, Italie (16324): Direction du vent: 12.10.2017 05:00:00 - 18.10.2017 05:00:00 (CEST)Grottaglie, Italie (16324): visibility: 12.10.2017 05:00:00 - 18.10.2017 05:00:00 (CEST)
Date & Time tt [°C] td [°C] ff [km/h] ff [knt] dd vv [km]
18.10.2017 05:00:00 - - - - - -
18.10.2017 04:00:00 - - - - - -
18.10.2017 03:00:00 - - - - - -
18.10.2017 02:00:00 - - - - - -
18.10.2017 01:00:00 - - - - - -
18.10.2017 00:00:00 - - - - - -
17.10.2017 23:00:00 - - - - - -
17.10.2017 22:00:00 - - - - - -
17.10.2017 21:00:00 - - - - - -
17.10.2017 20:00:00 18,0 12,0 0 0 N 10
17.10.2017 19:00:00 20,0 13,0 0 0 N 10
17.10.2017 18:00:00 23,0 13,0 5 3 W 10
17.10.2017 17:00:00 25,0 10,0 9 5 W 10
17.10.2017 16:00:00 27,0 12,0 11 6 WSW 10
17.10.2017 15:00:00 27,0 12,0 11 6 SW 10
17.10.2017 14:00:00 28,0 6,0 5 3 SW 10
17.10.2017 13:00:00 26,0 7,0 0 0 N 10
17.10.2017 12:00:00 25,0 7,0 5 3 SW 10
17.10.2017 11:00:00 23,0 8,0 5 3 SSW 10
17.10.2017 10:00:00 21,0 6,0 0 0 N 10
17.10.2017 09:00:00 16,0 8,0 4 2 NE 10
17.10.2017 08:00:00 11,0 8,0 0 0 N 10
17.10.2017 07:00:00 - - - - - -
17.10.2017 06:00:00 - - - - - -
17.10.2017 05:00:00 - - - - - -
17.10.2017 04:00:00 - - - - - -
17.10.2017 03:00:00 - - - - - -
17.10.2017 02:00:00 - - - - - -
17.10.2017 01:00:00 - - - - - -
17.10.2017 00:00:00 - - - - - -
16.10.2017 23:00:00 - - - - - -
16.10.2017 22:00:00 - - - - - -
16.10.2017 21:00:00 - - - - - -
16.10.2017 20:00:00 18,0 11,0 4 2 - 10
16.10.2017 19:00:00 21,0 11,0 5 3 N 10
16.10.2017 18:00:00 24,0 10,0 11 6 NNE 10
16.10.2017 17:00:00 26,0 9,0 16 9 ENE 10
16.10.2017 16:00:00 27,0 10,0 15 8 ENE 10
16.10.2017 15:00:00 27,0 9,0 9 5 ENE 10
16.10.2017 14:00:00 26,0 12,0 5 3 W 10
16.10.2017 13:00:00 25,0 13,0 5 3 W 10
16.10.2017 12:00:00 23,0 12,0 8 4 SSW 10
16.10.2017 11:00:00 21,0 12,0 5 3 WSW 10
16.10.2017 10:00:00 19,0 13,0 5 3 WSW 10
16.10.2017 09:00:00 15,0 13,0 4 2 - 10
16.10.2017 08:00:00 11,0 10,0 0 0 N 10
16.10.2017 07:00:00 - - - - - -
16.10.2017 06:00:00 - - - - - -
16.10.2017 05:00:00 - - - - - -
16.10.2017 04:00:00 - - - - - -
16.10.2017 03:00:00 - - - - - -
16.10.2017 02:00:00 - - - - - -
16.10.2017 01:00:00 - - - - - -
16.10.2017 00:00:00 - - - - - -
15.10.2017 23:00:00 - - - - - -
15.10.2017 22:00:00 - - - - - -
15.10.2017 21:00:00 - - - - - -
15.10.2017 20:00:00 18,0 12,0 8 4 N 10
15.10.2017 19:00:00 21,0 13,0 5 3 N 10
15.10.2017 18:00:00 23,0 13,0 15 8 N 10
15.10.2017 17:00:00 25,0 15,0 18 10 NNE 10
15.10.2017 16:00:00 26,0 11,0 11 6 N 10
15.10.2017 15:00:00 26,0 12,0 13 7 NE 10
15.10.2017 14:00:00 26,0 14,0 11 6 NNE 10
15.10.2017 13:00:00 24,0 14,0 16 9 NNE 10
15.10.2017 12:00:00 24,0 14,0 15 8 N 10
15.10.2017 11:00:00 23,0 14,0 16 9 N 10
15.10.2017 10:00:00 21,0 14,0 15 8 N 10
15.10.2017 09:00:00 19,0 14,0 8 4 NNW 10
15.10.2017 08:00:00 18,0 13,0 5 3 N 10
15.10.2017 07:00:00 - - - - - -
15.10.2017 06:00:00 - - - - - -
15.10.2017 05:00:00 - - - - - -
15.10.2017 04:00:00 - - - - - -
15.10.2017 03:00:00 - - - - - -
15.10.2017 02:00:00 - - - - - -
15.10.2017 01:00:00 - - - - - -
15.10.2017 00:00:00 - - - - - -
14.10.2017 23:00:00 - - - - - -
14.10.2017 22:00:00 - - - - - -
14.10.2017 21:00:00 - - - - - -
14.10.2017 20:00:00 18,0 14,0 5 3 - 10
14.10.2017 19:00:00 19,0 14,0 5 3 NNW 10
14.10.2017 18:00:00 21,0 14,0 18 10 N 10
14.10.2017 17:00:00 22,0 15,0 21 11 N 10
14.10.2017 16:00:00 23,0 14,0 21 11 N 10
14.10.2017 15:00:00 23,0 15,0 21 11 NNE 10
14.10.2017 14:00:00 23,0 15,0 18 10 N 10
14.10.2017 13:00:00 23,0 15,0 21 11 N 10
14.10.2017 12:00:00 23,0 15,0 21 11 N 10
14.10.2017 11:00:00 22,0 15,0 28 15 N 10
14.10.2017 10:00:00 20,0 15,0 31 17 N 10
14.10.2017 09:00:00 18,0 15,0 31 17 N 10
14.10.2017 08:00:00 17,0 14,0 28 15 N 10
14.10.2017 07:00:00 - - - - - -
14.10.2017 06:00:00 - - - - - -
14.10.2017 05:00:00 - - - - - -
14.10.2017 04:00:00 - - - - - -
14.10.2017 03:00:00 - - - - - -
14.10.2017 02:00:00 - - - - - -
14.10.2017 01:00:00 - - - - - -
14.10.2017 00:00:00 - - - - - -
13.10.2017 23:00:00 - - - - - -
13.10.2017 22:00:00 - - - - - -
13.10.2017 21:00:00 - - - - - -
13.10.2017 20:00:00 19,0 13,0 24 13 N 10
13.10.2017 19:00:00 19,0 14,0 24 13 NNE 10
13.10.2017 18:00:00 21,0 14,0 24 13 N 10
13.10.2017 17:00:00 22,0 14,0 26 14 N 10
13.10.2017 16:00:00 24,0 13,0 22 12 N 10
13.10.2017 15:00:00 25,0 13,0 22 12 NNE 10
13.10.2017 14:00:00 24,0 11,0 15 8 N 10
13.10.2017 13:00:00 23,0 13,0 15 8 N 10
13.10.2017 12:00:00 23,0 15,0 16 9 N 10
13.10.2017 11:00:00 22,0 15,0 13 7 NNE 10
13.10.2017 10:00:00 20,0 15,0 0 0 N 10
13.10.2017 09:00:00 18,0 15,0 8 4 N 10
13.10.2017 08:00:00 16,0 15,0 11 6 N 10
13.10.2017 07:00:00 - - - - - -
13.10.2017 06:00:00 - - - - - -
13.10.2017 05:00:00 - - - - - -
13.10.2017 04:00:00 - - - - - -
13.10.2017 03:00:00 - - - - - -
13.10.2017 02:00:00 - - - - - -
13.10.2017 01:00:00 - - - - - -
13.10.2017 00:00:00 - - - - - -
12.10.2017 23:00:00 - - - - - -
12.10.2017 22:00:00 - - - - - -
12.10.2017 21:00:00 - - - - - -
12.10.2017 20:00:00 17,0 14,0 0 0 N 10
12.10.2017 19:00:00 20,0 15,0 5 3 NE 10
12.10.2017 18:00:00 22,0 14,0 5 3 W 10
12.10.2017 17:00:00 23,0 14,0 9 5 W 10
12.10.2017 16:00:00 23,0 14,0 11 6 WSW 10
12.10.2017 15:00:00 23,0 13,0 11 6 WSW 10
12.10.2017 14:00:00 23,0 13,0 8 4 WSW 10
12.10.2017 13:00:00 22,0 13,0 9 5 WSW 10
12.10.2017 12:00:00 22,0 12,0 0 0 N 10
12.10.2017 11:00:00 21,0 12,0 5 3 SSW 10
12.10.2017 10:00:00 18,0 13,0 0 0 N 10
12.10.2017 09:00:00 14,0 13,0 0 0 N 10
12.10.2017 08:00:00 12,0 11,0 0 0 N 10
12.10.2017 07:00:00 - - - - - -
12.10.2017 06:00:00 - - - - - -
12.10.2017 05:00:00 - - - - - -

tt = Température de l'air
td = dewpoint
ff = Vitesse du vent
dd = Direction du vent
vv = visibility

stations d'obs. à proximité